sensor_id;sensor_type;location;lat;lon;timestamp;temperature;humidity
1686;DHT22;840;47.980;7.830;2022-09-09T00:01:49;18.50;99.90
1686;DHT22;840;47.980;7.830;2022-09-09T00:04:25;18.50;99.90
1686;DHT22;840;47.980;7.830;2022-09-09T00:07:01;18.50;99.90
1686;DHT22;840;47.980;7.830;2022-09-09T00:09:33;18.50;99.90
1686;DHT22;840;47.980;7.830;2022-09-09T00:12:10;18.50;99.90
1686;DHT22;840;47.980;7.830;2022-09-09T00:14:42;18.50;99.90
1686;DHT22;840;47.980;7.830;2022-09-09T00:17:14;18.60;99.90
1686;DHT22;840;47.980;7.830;2022-09-09T00:19:50;18.50;99.90
1686;DHT22;840;47.980;7.830;2022-09-09T00:22:26;18.50;99.90
1686;DHT22;840;47.980;7.830;2022-09-09T00:24:55;18.50;99.90
1686;DHT22;840;47.980;7.830;2022-09-09T00:27:30;18.50;99.90
1686;DHT22;840;47.980;7.830;2022-09-09T00:30:12;18.50;99.90
1686;DHT22;840;47.980;7.830;2022-09-09T00:32:39;18.50;99.90
1686;DHT22;840;47.980;7.830;2022-09-09T00:35:16;18.50;99.90
1686;DHT22;840;47.980;7.830;2022-09-09T00:37:47;18.40;99.90
1686;DHT22;840;47.980;7.830;2022-09-09T00:40:22;18.40;99.90
1686;DHT22;840;47.980;7.830;2022-09-09T00:42:53;18.40;99.90
1686;DHT22;840;47.980;7.830;2022-09-09T00:45:42;18.40;99.90
1686;DHT22;840;47.980;7.830;2022-09-09T00:48:13;18.40;99.90
1686;DHT22;840;47.980;7.830;2022-09-09T00:50:46;18.40;99.90
1686;DHT22;840;47.980;7.830;2022-09-09T00:53:31;18.30;99.90
1686;DHT22;840;47.980;7.830;2022-09-09T00:56:09;18.30;99.90
1686;DHT22;840;47.980;7.830;2022-09-09T00:58:38;18.30;99.90
1686;DHT22;840;47.980;7.830;2022-09-09T01:01:09;18.30;99.90
1686;DHT22;840;47.980;7.830;2022-09-09T01:03:38;18.30;99.90
1686;DHT22;840;47.980;7.830;2022-09-09T01:06:16;18.30;99.90
1686;DHT22;840;47.980;7.830;2022-09-09T01:09:04;18.30;99.90
1686;DHT22;840;47.980;7.830;2022-09-09T01:11:38;18.30;99.90
1686;DHT22;840;47.980;7.830;2022-09-09T01:14:16;18.20;99.90
1686;DHT22;840;47.980;7.830;2022-09-09T01:16:45;18.20;99.90
1686;DHT22;840;47.980;7.830;2022-09-09T01:19:19;18.20;99.90
1686;DHT22;840;47.980;7.830;2022-09-09T01:21:55;18.20;99.90
1686;DHT22;840;47.980;7.830;2022-09-09T01:24:34;18.20;99.90
1686;DHT22;840;47.980;7.830;2022-09-09T01:27:05;18.20;99.90
1686;DHT22;840;47.980;7.830;2022-09-09T01:29:33;18.20;99.90
1686;DHT22;840;47.980;7.830;2022-09-09T01:32:02;18.20;99.90
1686;DHT22;840;47.980;7.830;2022-09-09T01:34:32;18.30;99.90
1686;DHT22;840;47.980;7.830;2022-09-09T01:37:02;18.30;99.90
1686;DHT22;840;47.980;7.830;2022-09-09T01:39:31;18.30;99.90
1686;DHT22;840;47.980;7.830;2022-09-09T01:41:59;18.30;99.90
1686;DHT22;840;47.980;7.830;2022-09-09T01:44:30;18.30;99.90
1686;DHT22;840;47.980;7.830;2022-09-09T01:46:57;18.30;99.90
1686;DHT22;840;47.980;7.830;2022-09-09T01:49:24;18.20;99.90
1686;DHT22;840;47.980;7.830;2022-09-09T01:51:53;18.10;99.90
1686;DHT22;840;47.980;7.830;2022-09-09T01:54:23;18.20;99.90
1686;DHT22;840;47.980;7.830;2022-09-09T01:57:01;18.20;99.90
1686;DHT22;840;47.980;7.830;2022-09-09T01:59:48;18.10;99.90
1686;DHT22;840;47.980;7.830;2022-09-09T02:02:19;18.10;99.90
1686;DHT22;840;47.980;7.830;2022-09-09T02:04:49;18.10;99.90
1686;DHT22;840;47.980;7.830;2022-09-09T02:07:27;18.10;99.90
1686;DHT22;840;47.980;7.830;2022-09-09T02:10:01;18.10;99.90
1686;DHT22;840;47.980;7.830;2022-09-09T02:12:30;18.10;99.90
1686;DHT22;840;47.980;7.830;2022-09-09T02:15:05;18.10;99.90
1686;DHT22;840;47.980;7.830;2022-09-09T02:17:36;18.10;99.90
1686;DHT22;840;47.980;7.830;2022-09-09T02:20:07;18.00;99.90
1686;DHT22;840;47.980;7.830;2022-09-09T02:22:36;18.00;99.90
1686;DHT22;840;47.980;7.830;2022-09-09T02:25:07;18.00;99.90
1686;DHT22;840;47.980;7.830;2022-09-09T02:27:34;18.00;99.90
1686;DHT22;840;47.980;7.830;2022-09-09T02:30:04;18.00;99.90
1686;DHT22;840;47.980;7.830;2022-09-09T02:32:33;18.00;99.90
1686;DHT22;840;47.980;7.830;2022-09-09T02:35:05;18.00;99.90
1686;DHT22;840;47.980;7.830;2022-09-09T02:37:37;18.00;99.90
1686;DHT22;840;47.980;7.830;2022-09-09T02:40:05;18.00;99.90
1686;DHT22;840;47.980;7.830;2022-09-09T02:42:36;18.00;99.90
1686;DHT22;840;47.980;7.830;2022-09-09T02:45:07;18.00;99.90
1686;DHT22;840;47.980;7.830;2022-09-09T02:47:35;18.00;99.90
1686;DHT22;840;47.980;7.830;2022-09-09T02:50:11;18.00;99.90
1686;DHT22;840;47.980;7.830;2022-09-09T02:52:47;18.00;99.90
1686;DHT22;840;47.980;7.830;2022-09-09T02:55:21;18.00;99.90
1686;DHT22;840;47.980;7.830;2022-09-09T02:57:50;18.00;99.90
1686;DHT22;840;47.980;7.830;2022-09-09T03:00:24;18.00;99.90
1686;DHT22;840;47.980;7.830;2022-09-09T03:02:51;18.00;99.90
1686;DHT22;840;47.980;7.830;2022-09-09T03:05:20;18.00;99.90
1686;DHT22;840;47.980;7.830;2022-09-09T03:07:47;17.90;99.90
1686;DHT22;840;47.980;7.830;2022-09-09T03:10:15;17.90;99.90
1686;DHT22;840;47.980;7.830;2022-09-09T03:12:42;18.00;99.90
1686;DHT22;840;47.980;7.830;2022-09-09T03:15:09;17.90;99.90
1686;DHT22;840;47.980;7.830;2022-09-09T03:17:38;17.90;99.90
1686;DHT22;840;47.980;7.830;2022-09-09T03:20:06;17.90;99.90
1686;DHT22;840;47.980;7.830;2022-09-09T03:22:34;17.90;99.90
1686;DHT22;840;47.980;7.830;2022-09-09T03:25:01;18.00;99.90
1686;DHT22;840;47.980;7.830;2022-09-09T03:27:29;17.90;99.90
1686;DHT22;840;47.980;7.830;2022-09-09T03:29:56;17.90;99.90
1686;DHT22;840;47.980;7.830;2022-09-09T03:32:23;17.90;99.90
1686;DHT22;840;47.980;7.830;2022-09-09T03:34:52;17.90;99.90
1686;DHT22;840;47.980;7.830;2022-09-09T03:37:22;18.00;99.90
1686;DHT22;840;47.980;7.830;2022-09-09T03:39:49;18.00;99.90
1686;DHT22;840;47.980;7.830;2022-09-09T03:42:16;18.10;99.90
1686;DHT22;840;47.980;7.830;2022-09-09T03:44:44;18.10;99.90
1686;DHT22;840;47.980;7.830;2022-09-09T03:47:12;18.20;99.90
1686;DHT22;840;47.980;7.830;2022-09-09T03:49:39;18.20;99.90
1686;DHT22;840;47.980;7.830;2022-09-09T03:52:08;18.20;99.90
1686;DHT22;840;47.980;7.830;2022-09-09T03:54:35;18.30;99.90
1686;DHT22;840;47.980;7.830;2022-09-09T03:57:02;18.30;99.90
1686;DHT22;840;47.980;7.830;2022-09-09T03:59:29;18.30;99.90
1686;DHT22;840;47.980;7.830;2022-09-09T04:01:56;18.30;99.90
1686;DHT22;840;47.980;7.830;2022-09-09T04:04:24;18.30;99.90
1686;DHT22;840;47.980;7.830;2022-09-09T04:06:51;18.30;99.90
1686;DHT22;840;47.980;7.830;2022-09-09T04:09:20;18.40;99.90
1686;DHT22;840;47.980;7.830;2022-09-09T04:11:47;18.40;99.90
1686;DHT22;840;47.980;7.830;2022-09-09T04:14:15;18.40;99.90
1686;DHT22;840;47.980;7.830;2022-09-09T04:16:41;18.40;99.90
1686;DHT22;840;47.980;7.830;2022-09-09T04:19:10;18.40;99.90
1686;DHT22;840;47.980;7.830;2022-09-09T04:21:38;18.40;99.90
1686;DHT22;840;47.980;7.830;2022-09-09T04:24:06;18.40;99.90
1686;DHT22;840;47.980;7.830;2022-09-09T04:26:35;18.40;99.90
1686;DHT22;840;47.980;7.830;2022-09-09T04:29:02;18.40;99.90
1686;DHT22;840;47.980;7.830;2022-09-09T04:31:29;18.40;99.90
1686;DHT22;840;47.980;7.830;2022-09-09T04:33:56;18.40;99.90
1686;DHT22;840;47.980;7.830;2022-09-09T04:36:23;18.40;99.90
1686;DHT22;840;47.980;7.830;2022-09-09T04:38:50;18.40;99.90
1686;DHT22;840;47.980;7.830;2022-09-09T04:41:16;18.40;99.90
1686;DHT22;840;47.980;7.830;2022-09-09T04:43:44;18.40;99.90
1686;DHT22;840;47.980;7.830;2022-09-09T04:46:12;18.40;99.90
1686;DHT22;840;47.980;7.830;2022-09-09T04:48:38;18.40;99.90
1686;DHT22;840;47.980;7.830;2022-09-09T04:51:08;18.50;99.90
1686;DHT22;840;47.980;7.830;2022-09-09T04:53:35;18.50;99.90
1686;DHT22;840;47.980;7.830;2022-09-09T04:56:04;18.50;99.90
1686;DHT22;840;47.980;7.830;2022-09-09T04:58:31;18.50;99.90
1686;DHT22;840;47.980;7.830;2022-09-09T05:01:05;18.50;99.90
1686;DHT22;840;47.980;7.830;2022-09-09T05:03:32;18.50;99.90
1686;DHT22;840;47.980;7.830;2022-09-09T05:06:04;18.50;99.90
1686;DHT22;840;47.980;7.830;2022-09-09T05:08:31;18.50;99.90
1686;DHT22;840;47.980;7.830;2022-09-09T05:10:58;18.50;99.90
1686;DHT22;840;47.980;7.830;2022-09-09T05:13:25;18.50;99.90
1686;DHT22;840;47.980;7.830;2022-09-09T05:15:53;18.60;99.90
1686;DHT22;840;47.980;7.830;2022-09-09T05:18:21;18.60;99.90
1686;DHT22;840;47.980;7.830;2022-09-09T05:20:48;18.60;99.90
1686;DHT22;840;47.980;7.830;2022-09-09T05:23:16;18.60;99.90
1686;DHT22;840;47.980;7.830;2022-09-09T05:25:43;18.60;99.90
1686;DHT22;840;47.980;7.830;2022-09-09T05:28:12;18.60;99.90
1686;DHT22;840;47.980;7.830;2022-09-09T05:30:39;18.60;99.90
1686;DHT22;840;47.980;7.830;2022-09-09T05:33:06;18.60;99.90
1686;DHT22;840;47.980;7.830;2022-09-09T05:35:36;18.60;99.90
1686;DHT22;840;47.980;7.830;2022-09-09T05:38:03;18.60;99.90
1686;DHT22;840;47.980;7.830;2022-09-09T05:40:30;18.60;99.90
1686;DHT22;840;47.980;7.830;2022-09-09T05:43:00;18.70;99.90
1686;DHT22;840;47.980;7.830;2022-09-09T05:45:28;18.70;99.90
1686;DHT22;840;47.980;7.830;2022-09-09T05:47:54;18.70;99.90
1686;DHT22;840;47.980;7.830;2022-09-09T05:50:22;18.70;99.90
1686;DHT22;840;47.980;7.830;2022-09-09T05:52:54;18.70;99.90
1686;DHT22;840;47.980;7.830;2022-09-09T05:55:21;18.70;99.90
1686;DHT22;840;47.980;7.830;2022-09-09T05:57:48;18.70;99.90
1686;DHT22;840;47.980;7.830;2022-09-09T06:00:17;18.70;99.90
1686;DHT22;840;47.980;7.830;2022-09-09T06:02:50;18.80;99.90
1686;DHT22;840;47.980;7.830;2022-09-09T06:05:17;18.80;99.90
1686;DHT22;840;47.980;7.830;2022-09-09T06:07:44;18.80;99.90
1686;DHT22;840;47.980;7.830;2022-09-09T06:10:13;18.80;99.90
1686;DHT22;840;47.980;7.830;2022-09-09T06:12:39;18.90;99.90
1686;DHT22;840;47.980;7.830;2022-09-09T06:15:07;18.90;99.90
1686;DHT22;840;47.980;7.830;2022-09-09T06:17:34;19.00;99.90
1686;DHT22;840;47.980;7.830;2022-09-09T06:20:02;19.00;99.90
1686;DHT22;840;47.980;7.830;2022-09-09T06:22:29;19.00;99.90
1686;DHT22;840;47.980;7.830;2022-09-09T06:24:56;19.00;99.90
1686;DHT22;840;47.980;7.830;2022-09-09T06:27:24;19.10;99.90
1686;DHT22;840;47.980;7.830;2022-09-09T06:29:51;19.10;99.90
1686;DHT22;840;47.980;7.830;2022-09-09T06:32:18;19.10;99.90
1686;DHT22;840;47.980;7.830;2022-09-09T06:34:45;19.10;99.90
1686;DHT22;840;47.980;7.830;2022-09-09T06:37:14;19.10;99.90
1686;DHT22;840;47.980;7.830;2022-09-09T06:39:44;19.10;99.90
1686;DHT22;840;47.980;7.830;2022-09-09T06:42:10;19.20;99.90
1686;DHT22;840;47.980;7.830;2022-09-09T06:44:38;19.20;99.90
1686;DHT22;840;47.980;7.830;2022-09-09T06:47:05;19.20;99.90
1686;DHT22;840;47.980;7.830;2022-09-09T06:49:32;19.20;99.90
1686;DHT22;840;47.980;7.830;2022-09-09T06:52:00;19.10;99.90
1686;DHT22;840;47.980;7.830;2022-09-09T06:54:27;19.10;99.90
1686;DHT22;840;47.980;7.830;2022-09-09T06:56:54;19.10;99.90
1686;DHT22;840;47.980;7.830;2022-09-09T06:59:21;19.10;99.90
1686;DHT22;840;47.980;7.830;2022-09-09T07:01:49;19.20;99.90
1686;DHT22;840;47.980;7.830;2022-09-09T07:04:17;19.20;99.90
1686;DHT22;840;47.980;7.830;2022-09-09T07:06:45;19.30;99.90
1686;DHT22;840;47.980;7.830;2022-09-09T07:09:13;19.30;99.90
1686;DHT22;840;47.980;7.830;2022-09-09T07:11:41;19.40;99.90
1686;DHT22;840;47.980;7.830;2022-09-09T07:14:09;19.50;99.90
1686;DHT22;840;47.980;7.830;2022-09-09T07:16:39;19.50;99.90
1686;DHT22;840;47.980;7.830;2022-09-09T07:19:08;19.60;99.90
1686;DHT22;840;47.980;7.830;2022-09-09T07:21:36;19.60;99.90
1686;DHT22;840;47.980;7.830;2022-09-09T07:24:03;19.70;99.90
1686;DHT22;840;47.980;7.830;2022-09-09T07:26:33;19.70;99.90
1686;DHT22;840;47.980;7.830;2022-09-09T07:29:00;19.80;99.90
1686;DHT22;840;47.980;7.830;2022-09-09T07:31:28;19.70;99.90
1686;DHT22;840;47.980;7.830;2022-09-09T07:33:56;19.80;99.90
1686;DHT22;840;47.980;7.830;2022-09-09T07:36:30;19.80;99.90
1686;DHT22;840;47.980;7.830;2022-09-09T07:38:59;19.90;99.90
1686;DHT22;840;47.980;7.830;2022-09-09T07:41:28;19.90;99.90
1686;DHT22;840;47.980;7.830;2022-09-09T07:43:55;19.90;99.90
1686;DHT22;840;47.980;7.830;2022-09-09T07:46:25;19.90;99.90
1686;DHT22;840;47.980;7.830;2022-09-09T07:48:54;19.80;99.90
1686;DHT22;840;47.980;7.830;2022-09-09T07:51:23;19.80;99.90
1686;DHT22;840;47.980;7.830;2022-09-09T07:53:55;19.90;99.90
1686;DHT22;840;47.980;7.830;2022-09-09T07:56:23;19.90;99.90
1686;DHT22;840;47.980;7.830;2022-09-09T07:58:51;19.90;99.90
1686;DHT22;840;47.980;7.830;2022-09-09T08:01:21;19.90;99.90
1686;DHT22;840;47.980;7.830;2022-09-09T08:03:54;19.90;99.90
1686;DHT22;840;47.980;7.830;2022-09-09T08:06:21;19.90;99.90
1686;DHT22;840;47.980;7.830;2022-09-09T08:08:50;19.90;99.90
1686;DHT22;840;47.980;7.830;2022-09-09T08:11:19;19.90;99.90
1686;DHT22;840;47.980;7.830;2022-09-09T08:13:46;20.00;99.90
1686;DHT22;840;47.980;7.830;2022-09-09T08:16:15;20.00;99.90
1686;DHT22;840;47.980;7.830;2022-09-09T08:18:42;20.00;99.90
1686;DHT22;840;47.980;7.830;2022-09-09T08:21:10;20.00;99.90
1686;DHT22;840;47.980;7.830;2022-09-09T08:23:38;20.00;99.90
1686;DHT22;840;47.980;7.830;2022-09-09T08:26:09;20.00;99.90
1686;DHT22;840;47.980;7.830;2022-09-09T08:28:38;20.00;99.90
1686;DHT22;840;47.980;7.830;2022-09-09T08:31:07;20.10;99.90
1686;DHT22;840;47.980;7.830;2022-09-09T08:33:34;20.10;99.90
1686;DHT22;840;47.980;7.830;2022-09-09T08:36:04;20.10;99.90
1686;DHT22;840;47.980;7.830;2022-09-09T08:38:31;20.10;99.90
1686;DHT22;840;47.980;7.830;2022-09-09T08:41:07;20.10;99.90
1686;DHT22;840;47.980;7.830;2022-09-09T08:43:41;20.10;99.90
1686;DHT22;840;47.980;7.830;2022-09-09T08:46:12;20.10;99.90
1686;DHT22;840;47.980;7.830;2022-09-09T08:48:50;20.20;99.90
1686;DHT22;840;47.980;7.830;2022-09-09T08:51:18;20.30;99.90
1686;DHT22;840;47.980;7.830;2022-09-09T08:53:50;20.40;99.90
1686;DHT22;840;47.980;7.830;2022-09-09T08:56:22;20.50;99.90
1686;DHT22;840;47.980;7.830;2022-09-09T08:58:53;20.60;99.90
1686;DHT22;840;47.980;7.830;2022-09-09T09:01:33;20.70;99.90
1686;DHT22;840;47.980;7.830;2022-09-09T09:04:10;20.70;99.90
1686;DHT22;840;47.980;7.830;2022-09-09T09:06:48;20.70;99.90
1686;DHT22;840;47.980;7.830;2022-09-09T09:09:22;20.80;99.90
1686;DHT22;840;47.980;7.830;2022-09-09T09:11:53;20.80;99.90
1686;DHT22;840;47.980;7.830;2022-09-09T09:14:24;20.80;99.90
1686;DHT22;840;47.980;7.830;2022-09-09T09:16:53;20.80;99.90
1686;DHT22;840;47.980;7.830;2022-09-09T09:19:22;21.00;99.90
1686;DHT22;840;47.980;7.830;2022-09-09T09:21:56;21.00;99.90
1686;DHT22;840;47.980;7.830;2022-09-09T09:24:29;21.10;99.90
1686;DHT22;840;47.980;7.830;2022-09-09T09:26:59;21.20;99.90
1686;DHT22;840;47.980;7.830;2022-09-09T09:29:32;21.10;99.90
1686;DHT22;840;47.980;7.830;2022-09-09T09:32:01;21.00;99.90
1686;DHT22;840;47.980;7.830;2022-09-09T09:34:30;20.90;99.90
1686;DHT22;840;47.980;7.830;2022-09-09T09:36:57;20.80;99.90
1686;DHT22;840;47.980;7.830;2022-09-09T09:39:28;20.80;99.90
1686;DHT22;840;47.980;7.830;2022-09-09T09:41:55;20.90;99.90
1686;DHT22;840;47.980;7.830;2022-09-09T09:44:25;20.90;99.90
1686;DHT22;840;47.980;7.830;2022-09-09T09:47:06;20.90;99.90
1686;DHT22;840;47.980;7.830;2022-09-09T09:49:33;21.00;99.90
1686;DHT22;840;47.980;7.830;2022-09-09T09:52:00;21.00;99.90
1686;DHT22;840;47.980;7.830;2022-09-09T09:54:28;21.00;99.90
1686;DHT22;840;47.980;7.830;2022-09-09T09:56:57;21.00;99.90
1686;DHT22;840;47.980;7.830;2022-09-09T09:59:35;21.00;99.90
1686;DHT22;840;47.980;7.830;2022-09-09T10:02:25;21.10;99.90
1686;DHT22;840;47.980;7.830;2022-09-09T10:05:03;21.10;99.90
1686;DHT22;840;47.980;7.830;2022-09-09T10:07:31;21.30;99.90
1686;DHT22;840;47.980;7.830;2022-09-09T10:09:58;21.50;99.90
1686;DHT22;840;47.980;7.830;2022-09-09T10:12:35;21.60;99.90
1686;DHT22;840;47.980;7.830;2022-09-09T10:15:14;21.90;99.90
1686;DHT22;840;47.980;7.830;2022-09-09T10:17:53;22.10;99.90
1686;DHT22;840;47.980;7.830;2022-09-09T10:20:32;22.20;99.90
1686;DHT22;840;47.980;7.830;2022-09-09T10:23:11;22.40;99.90
1686;DHT22;840;47.980;7.830;2022-09-09T10:25:59;22.50;99.90
1686;DHT22;840;47.980;7.830;2022-09-09T10:28:37;22.60;99.90
1686;DHT22;840;47.980;7.830;2022-09-09T10:31:17;22.70;99.90
1686;DHT22;840;47.980;7.830;2022-09-09T10:33:50;22.80;99.90
1686;DHT22;840;47.980;7.830;2022-09-09T10:36:20;22.70;99.90
1686;DHT22;840;47.980;7.830;2022-09-09T10:38:52;22.50;99.90
1686;DHT22;840;47.980;7.830;2022-09-09T10:41:26;22.10;99.90
1686;DHT22;840;47.980;7.830;2022-09-09T10:44:13;21.60;99.90
1686;DHT22;840;47.980;7.830;2022-09-09T10:49:59;21.00;99.90
1686;DHT22;840;47.980;7.830;2022-09-09T10:52:32;20.90;99.90
1686;DHT22;840;47.980;7.830;2022-09-09T10:55:08;20.90;99.90
1686;DHT22;840;47.980;7.830;2022-09-09T10:57:40;20.90;99.90
1686;DHT22;840;47.980;7.830;2022-09-09T11:00:15;20.90;99.90
1686;DHT22;840;47.980;7.830;2022-09-09T11:02:43;20.90;99.90
1686;DHT22;840;47.980;7.830;2022-09-09T11:05:17;21.00;99.90
1686;DHT22;840;47.980;7.830;2022-09-09T11:07:52;21.00;99.90
1686;DHT22;840;47.980;7.830;2022-09-09T11:10:26;21.20;99.90
1686;DHT22;840;47.980;7.830;2022-09-09T11:13:02;21.30;99.90
1686;DHT22;840;47.980;7.830;2022-09-09T11:15:36;21.30;99.90
1686;DHT22;840;47.980;7.830;2022-09-09T11:18:08;21.30;99.90
1686;DHT22;840;47.980;7.830;2022-09-09T11:20:39;21.20;99.90
1686;DHT22;840;47.980;7.830;2022-09-09T11:23:11;21.10;99.90
1686;DHT22;840;47.980;7.830;2022-09-09T11:25:41;21.00;99.90
1686;DHT22;840;47.980;7.830;2022-09-09T11:28:32;21.10;99.90
1686;DHT22;840;47.980;7.830;2022-09-09T11:31:15;21.20;99.90
1686;DHT22;840;47.980;7.830;2022-09-09T11:34:02;21.30;99.90
1686;DHT22;840;47.980;7.830;2022-09-09T11:36:59;21.30;99.90
1686;DHT22;840;47.980;7.830;2022-09-09T11:40:02;21.30;99.90
1686;DHT22;840;47.980;7.830;2022-09-09T11:42:35;21.30;99.90
1686;DHT22;840;47.980;7.830;2022-09-09T11:45:10;21.30;99.90
1686;DHT22;840;47.980;7.830;2022-09-09T11:47:38;21.40;99.90
1686;DHT22;840;47.980;7.830;2022-09-09T11:50:22;21.40;99.90
1686;DHT22;840;47.980;7.830;2022-09-09T11:53:06;21.60;99.90
1686;DHT22;840;47.980;7.830;2022-09-09T11:55:41;21.80;99.90
1686;DHT22;840;47.980;7.830;2022-09-09T11:58:15;22.00;99.90
1686;DHT22;840;47.980;7.830;2022-09-09T12:00:44;22.00;99.90
1686;DHT22;840;47.980;7.830;2022-09-09T12:03:36;22.00;99.90
1686;DHT22;840;47.980;7.830;2022-09-09T12:06:15;22.10;99.90
1686;DHT22;840;47.980;7.830;2022-09-09T12:08:48;22.00;99.90
1686;DHT22;840;47.980;7.830;2022-09-09T12:11:28;22.00;99.90
1686;DHT22;840;47.980;7.830;2022-09-09T12:13:57;21.90;99.90
1686;DHT22;840;47.980;7.830;2022-09-09T12:16:30;21.90;99.90
1686;DHT22;840;47.980;7.830;2022-09-09T12:19:05;22.00;99.90
1686;DHT22;840;47.980;7.830;2022-09-09T12:21:37;22.10;99.90
1686;DHT22;840;47.980;7.830;2022-09-09T12:24:10;22.20;99.90
1686;DHT22;840;47.980;7.830;2022-09-09T12:26:41;22.30;99.90
1686;DHT22;840;47.980;7.830;2022-09-09T12:29:18;22.30;99.90
1686;DHT22;840;47.980;7.830;2022-09-09T12:31:53;22.30;99.90
1686;DHT22;840;47.980;7.830;2022-09-09T12:34:32;22.30;99.90
1686;DHT22;840;47.980;7.830;2022-09-09T12:37:05;22.40;99.90
1686;DHT22;840;47.980;7.830;2022-09-09T12:39:37;22.50;99.90
1686;DHT22;840;47.980;7.830;2022-09-09T12:42:16;22.60;99.90
1686;DHT22;840;47.980;7.830;2022-09-09T12:44:51;22.50;99.90
1686;DHT22;840;47.980;7.830;2022-09-09T12:47:20;22.50;99.90
1686;DHT22;840;47.980;7.830;2022-09-09T12:49:48;22.40;99.90
1686;DHT22;840;47.980;7.830;2022-09-09T12:52:22;22.30;99.90
1686;DHT22;840;47.980;7.830;2022-09-09T12:54:51;22.30;99.90
1686;DHT22;840;47.980;7.830;2022-09-09T12:57:19;22.20;99.90
1686;DHT22;840;47.980;7.830;2022-09-09T12:59:47;22.10;99.90
1686;DHT22;840;47.980;7.830;2022-09-09T13:02:20;22.10;99.90
1686;DHT22;840;47.980;7.830;2022-09-09T13:04:47;22.10;99.90
1686;DHT22;840;47.980;7.830;2022-09-09T13:07:16;22.10;99.90
1686;DHT22;840;47.980;7.830;2022-09-09T13:09:43;22.00;99.90
1686;DHT22;840;47.980;7.830;2022-09-09T13:12:14;22.10;99.90
1686;DHT22;840;47.980;7.830;2022-09-09T13:14:44;22.00;99.90
1686;DHT22;840;47.980;7.830;2022-09-09T13:17:19;22.00;99.90
1686;DHT22;840;47.980;7.830;2022-09-09T13:19:47;22.00;99.90
1686;DHT22;840;47.980;7.830;2022-09-09T13:22:21;21.90;99.90
1686;DHT22;840;47.980;7.830;2022-09-09T13:24:58;21.80;99.90
1686;DHT22;840;47.980;7.830;2022-09-09T13:27:31;21.70;99.90
1686;DHT22;840;47.980;7.830;2022-09-09T13:29:59;21.50;99.90
1686;DHT22;840;47.980;7.830;2022-09-09T13:32:28;21.40;99.90
1686;DHT22;840;47.980;7.830;2022-09-09T13:34:58;21.30;99.90
1686;DHT22;840;47.980;7.830;2022-09-09T13:37:31;21.30;99.90
1686;DHT22;840;47.980;7.830;2022-09-09T13:39:59;21.10;99.90
1686;DHT22;840;47.980;7.830;2022-09-09T13:42:27;21.00;99.90
1686;DHT22;840;47.980;7.830;2022-09-09T13:44:56;21.00;99.90
1686;DHT22;840;47.980;7.830;2022-09-09T13:47:29;21.10;99.90
1686;DHT22;840;47.980;7.830;2022-09-09T13:49:56;21.40;99.90
1686;DHT22;840;47.980;7.830;2022-09-09T13:52:23;21.80;99.90
1686;DHT22;840;47.980;7.830;2022-09-09T13:54:52;22.30;99.90
1686;DHT22;840;47.980;7.830;2022-09-09T13:57:22;22.70;99.90
1686;DHT22;840;47.980;7.830;2022-09-09T13:59:51;23.20;99.90
1686;DHT22;840;47.980;7.830;2022-09-09T14:02:19;23.60;99.90
1686;DHT22;840;47.980;7.830;2022-09-09T14:04:46;24.00;99.90
1686;DHT22;840;47.980;7.830;2022-09-09T14:07:17;24.20;99.90
1686;DHT22;840;47.980;7.830;2022-09-09T14:09:45;24.30;99.90
1686;DHT22;840;47.980;7.830;2022-09-09T14:12:16;24.20;99.90
1686;DHT22;840;47.980;7.830;2022-09-09T14:14:43;24.10;99.90
1686;DHT22;840;47.980;7.830;2022-09-09T14:17:09;23.90;99.90
1686;DHT22;840;47.980;7.830;2022-09-09T14:19:37;23.60;99.90
1686;DHT22;840;47.980;7.830;2022-09-09T14:22:04;23.40;99.90
1686;DHT22;840;47.980;7.830;2022-09-09T14:24:31;23.20;99.90
1686;DHT22;840;47.980;7.830;2022-09-09T14:26:58;23.10;99.90
1686;DHT22;840;47.980;7.830;2022-09-09T14:29:25;23.20;99.90
1686;DHT22;840;47.980;7.830;2022-09-09T14:31:52;23.10;99.90
1686;DHT22;840;47.980;7.830;2022-09-09T14:34:21;23.10;99.90
1686;DHT22;840;47.980;7.830;2022-09-09T14:36:49;23.10;99.90
1686;DHT22;840;47.980;7.830;2022-09-09T14:39:16;23.10;99.90
1686;DHT22;840;47.980;7.830;2022-09-09T14:41:43;23.20;99.90
1686;DHT22;840;47.980;7.830;2022-09-09T14:44:10;23.50;99.90
1686;DHT22;840;47.980;7.830;2022-09-09T14:46:38;23.80;99.90
1686;DHT22;840;47.980;7.830;2022-09-09T14:49:04;23.90;99.90
1686;DHT22;840;47.980;7.830;2022-09-09T14:51:34;24.00;99.90
1686;DHT22;840;47.980;7.830;2022-09-09T14:54:02;24.10;99.90
1686;DHT22;840;47.980;7.830;2022-09-09T14:56:31;23.90;99.90
1686;DHT22;840;47.980;7.830;2022-09-09T14:59:00;23.70;99.90
1686;DHT22;840;47.980;7.830;2022-09-09T15:01:28;23.50;99.90
1686;DHT22;840;47.980;7.830;2022-09-09T15:03:58;23.30;99.90
1686;DHT22;840;47.980;7.830;2022-09-09T15:06:26;23.00;99.90
1686;DHT22;840;47.980;7.830;2022-09-09T15:08:55;22.80;99.90
1686;DHT22;840;47.980;7.830;2022-09-09T15:11:26;22.60;99.90
1686;DHT22;840;47.980;7.830;2022-09-09T15:13:53;22.50;99.90
1686;DHT22;840;47.980;7.830;2022-09-09T15:16:23;22.40;99.90
1686;DHT22;840;47.980;7.830;2022-09-09T15:18:51;22.40;99.90
1686;DHT22;840;47.980;7.830;2022-09-09T15:21:20;22.40;99.90
1686;DHT22;840;47.980;7.830;2022-09-09T15:23:48;22.50;99.90
1686;DHT22;840;47.980;7.830;2022-09-09T15:26:15;22.50;99.90
1686;DHT22;840;47.980;7.830;2022-09-09T15:28:45;22.40;99.90
1686;DHT22;840;47.980;7.830;2022-09-09T15:31:14;22.20;99.90
1686;DHT22;840;47.980;7.830;2022-09-09T15:33:47;22.10;99.90
1686;DHT22;840;47.980;7.830;2022-09-09T15:36:15;22.00;99.90
1686;DHT22;840;47.980;7.830;2022-09-09T15:38:42;22.00;99.90
1686;DHT22;840;47.980;7.830;2022-09-09T15:41:09;21.90;99.90
1686;DHT22;840;47.980;7.830;2022-09-09T15:43:36;21.90;99.90
1686;DHT22;840;47.980;7.830;2022-09-09T15:46:22;21.90;99.90
1686;DHT22;840;47.980;7.830;2022-09-09T15:48:51;21.90;99.90
1686;DHT22;840;47.980;7.830;2022-09-09T15:51:18;21.90;99.90
1686;DHT22;840;47.980;7.830;2022-09-09T15:53:45;21.90;99.90
1686;DHT22;840;47.980;7.830;2022-09-09T15:56:12;22.00;99.90
1686;DHT22;840;47.980;7.830;2022-09-09T15:58:39;22.00;99.90
1686;DHT22;840;47.980;7.830;2022-09-09T16:01:10;22.00;99.90
1686;DHT22;840;47.980;7.830;2022-09-09T16:03:39;21.90;99.90
1686;DHT22;840;47.980;7.830;2022-09-09T16:06:07;21.80;99.90
1686;DHT22;840;47.980;7.830;2022-09-09T16:08:35;21.80;99.90
1686;DHT22;840;47.980;7.830;2022-09-09T16:11:06;21.80;99.90
1686;DHT22;840;47.980;7.830;2022-09-09T16:13:35;21.70;99.90
1686;DHT22;840;47.980;7.830;2022-09-09T16:16:02;21.60;99.90
1686;DHT22;840;47.980;7.830;2022-09-09T16:18:35;21.50;99.90
1686;DHT22;840;47.980;7.830;2022-09-09T16:21:02;21.10;99.90
1686;DHT22;840;47.980;7.830;2022-09-09T16:23:30;20.80;99.90
1686;DHT22;840;47.980;7.830;2022-09-09T16:25:57;20.60;99.90
1686;DHT22;840;47.980;7.830;2022-09-09T16:28:24;20.40;99.90
1686;DHT22;840;47.980;7.830;2022-09-09T16:30:51;20.20;99.90
1686;DHT22;840;47.980;7.830;2022-09-09T16:33:21;20.10;99.90
1686;DHT22;840;47.980;7.830;2022-09-09T16:35:52;20.00;99.90
1686;DHT22;840;47.980;7.830;2022-09-09T16:38:20;20.00;99.90
1686;DHT22;840;47.980;7.830;2022-09-09T16:40:46;20.00;99.90
1686;DHT22;840;47.980;7.830;2022-09-09T16:43:13;20.10;99.90